KSNK

Winston Field Airport

Snyder, Texas, USA
METAR KSNK 250515Z AUTO 16009KT 10SM CLR 26/17 A3004 RMK AO2 T02550165
Observed Flight Rules
May-25 @ 05:15 UTC (13 minutes ago) Visual Flight Rules
Wind Visibility Clouds
160° at 9 knots 10 miles
  • Clear skies
Temperatures Readings
Current 26°C / 79°F
Dewpoint 17°C / 63°F
Humidity 58%
Altimeter 30.04" Hg
Pressure 1017 hPa
Elevation 741
METAR KSNK 250515Z AUTO 16009KT 10SM CLR 26/17 A3004 RMK AO2 T02550165
Observed Flight Rules
May-25 @ 05:15 UTC
(13 minutes ago)
VFR
Wind Visibility
160° at 9 knots 10 miles
Clouds
  • Clear skies
Temperature Dewpoint
26°C / 79°F 17°C / 63°F
Humidity Altimeter Pressure
58% 30.04" Hg 1017 hPa